sensor_id;sensor_type;location;lat;lon;timestamp;temperature;humidity
5675;DHT22;2860;54.284;10.158;2023-07-31T00:02:02;13.40;99.90
5675;DHT22;2860;54.284;10.158;2023-07-31T00:04:27;13.40;99.90
5675;DHT22;2860;54.284;10.158;2023-07-31T00:06:53;13.40;99.90
5675;DHT22;2860;54.284;10.158;2023-07-31T00:09:18;13.40;99.90
5675;DHT22;2860;54.284;10.158;2023-07-31T00:11:44;13.50;99.90
5675;DHT22;2860;54.284;10.158;2023-07-31T00:14:09;13.50;99.90
5675;DHT22;2860;54.284;10.158;2023-07-31T00:16:35;13.50;99.90
5675;DHT22;2860;54.284;10.158;2023-07-31T00:19:00;13.50;99.90
5675;DHT22;2860;54.284;10.158;2023-07-31T00:21:26;13.50;99.90
5675;DHT22;2860;54.284;10.158;2023-07-31T00:23:51;13.50;99.90
5675;DHT22;2860;54.284;10.158;2023-07-31T00:26:17;13.50;99.90
5675;DHT22;2860;54.284;10.158;2023-07-31T00:28:42;13.50;99.90
5675;DHT22;2860;54.284;10.158;2023-07-31T00:31:08;13.50;99.90
5675;DHT22;2860;54.284;10.158;2023-07-31T00:33:35;13.50;99.90
5675;DHT22;2860;54.284;10.158;2023-07-31T00:36:00;13.50;99.90
5675;DHT22;2860;54.284;10.158;2023-07-31T00:38:26;13.50;99.90
5675;DHT22;2860;54.284;10.158;2023-07-31T00:40:51;13.50;99.90
5675;DHT22;2860;54.284;10.158;2023-07-31T00:43:17;13.60;99.90
5675;DHT22;2860;54.284;10.158;2023-07-31T00:45:42;13.60;99.90
5675;DHT22;2860;54.284;10.158;2023-07-31T00:48:08;13.60;99.90
5675;DHT22;2860;54.284;10.158;2023-07-31T00:50:35;13.60;99.90
5675;DHT22;2860;54.284;10.158;2023-07-31T00:53:00;13.60;99.90
5675;DHT22;2860;54.284;10.158;2023-07-31T00:55:26;13.60;99.90
5675;DHT22;2860;54.284;10.158;2023-07-31T00:57:52;13.60;99.90
5675;DHT22;2860;54.284;10.158;2023-07-31T01:00:18;13.60;99.90
5675;DHT22;2860;54.284;10.158;2023-07-31T01:02:44;13.60;99.90
5675;DHT22;2860;54.284;10.158;2023-07-31T01:05:09;13.60;99.90
5675;DHT22;2860;54.284;10.158;2023-07-31T01:07:56;13.60;99.90
5675;DHT22;2860;54.284;10.158;2023-07-31T01:10:31;13.60;99.90
5675;DHT22;2860;54.284;10.158;2023-07-31T01:13:00;13.60;99.90
5675;DHT22;2860;54.284;10.158;2023-07-31T01:15:26;13.50;99.90
5675;DHT22;2860;54.284;10.158;2023-07-31T01:17:52;13.50;99.90
5675;DHT22;2860;54.284;10.158;2023-07-31T01:20:21;13.50;99.90
5675;DHT22;2860;54.284;10.158;2023-07-31T01:23:22;13.50;99.90
5675;DHT22;2860;54.284;10.158;2023-07-31T01:26:14;13.50;99.90
5675;DHT22;2860;54.284;10.158;2023-07-31T01:28:55;13.50;99.90
5675;DHT22;2860;54.284;10.158;2023-07-31T01:31:24;13.50;99.90
5675;DHT22;2860;54.284;10.158;2023-07-31T01:33:52;13.50;99.90
5675;DHT22;2860;54.284;10.158;2023-07-31T01:36:19;13.50;99.90
5675;DHT22;2860;54.284;10.158;2023-07-31T01:38:44;13.50;99.90
5675;DHT22;2860;54.284;10.158;2023-07-31T01:41:10;13.50;99.90
5675;DHT22;2860;54.284;10.158;2023-07-31T01:43:35;13.50;99.90
5675;DHT22;2860;54.284;10.158;2023-07-31T01:46:01;13.40;99.90
5675;DHT22;2860;54.284;10.158;2023-07-31T01:48:26;13.40;99.90
5675;DHT22;2860;54.284;10.158;2023-07-31T01:50:52;13.40;99.90
5675;DHT22;2860;54.284;10.158;2023-07-31T01:53:17;13.40;99.90
5675;DHT22;2860;54.284;10.158;2023-07-31T01:55:43;13.30;99.90
5675;DHT22;2860;54.284;10.158;2023-07-31T01:58:09;13.30;99.90
5675;DHT22;2860;54.284;10.158;2023-07-31T02:00:34;13.30;99.90
5675;DHT22;2860;54.284;10.158;2023-07-31T02:03:00;13.30;99.90
5675;DHT22;2860;54.284;10.158;2023-07-31T02:05:25;13.30;99.90
5675;DHT22;2860;54.284;10.158;2023-07-31T02:07:51;13.20;99.90
5675;DHT22;2860;54.284;10.158;2023-07-31T02:10:16;13.20;99.90
5675;DHT22;2860;54.284;10.158;2023-07-31T02:12:42;13.20;99.90
5675;DHT22;2860;54.284;10.158;2023-07-31T02:15:08;13.10;99.90
5675;DHT22;2860;54.284;10.158;2023-07-31T02:17:33;13.10;99.90
5675;DHT22;2860;54.284;10.158;2023-07-31T02:19:59;13.00;99.90
5675;DHT22;2860;54.284;10.158;2023-07-31T02:22:25;12.90;99.90
5675;DHT22;2860;54.284;10.158;2023-07-31T02:24:50;12.90;99.90
5675;DHT22;2860;54.284;10.158;2023-07-31T02:27:16;12.90;99.90
5675;DHT22;2860;54.284;10.158;2023-07-31T02:29:41;12.80;99.90
5675;DHT22;2860;54.284;10.158;2023-07-31T02:32:07;12.80;99.90
5675;DHT22;2860;54.284;10.158;2023-07-31T02:34:32;12.80;99.90
5675;DHT22;2860;54.284;10.158;2023-07-31T02:36:58;12.90;99.90
5675;DHT22;2860;54.284;10.158;2023-07-31T02:39:23;12.90;99.90
5675;DHT22;2860;54.284;10.158;2023-07-31T02:41:49;12.90;99.90
5675;DHT22;2860;54.284;10.158;2023-07-31T02:44:14;12.90;99.90
5675;DHT22;2860;54.284;10.158;2023-07-31T02:46:40;12.90;99.90
5675;DHT22;2860;54.284;10.158;2023-07-31T02:49:06;12.90;99.90
5675;DHT22;2860;54.284;10.158;2023-07-31T02:51:31;12.90;99.90
5675;DHT22;2860;54.284;10.158;2023-07-31T02:53:57;12.90;99.90
5675;DHT22;2860;54.284;10.158;2023-07-31T02:56:22;12.90;99.90
5675;DHT22;2860;54.284;10.158;2023-07-31T02:58:48;13.00;99.90
5675;DHT22;2860;54.284;10.158;2023-07-31T03:01:13;13.00;99.90
5675;DHT22;2860;54.284;10.158;2023-07-31T03:03:41;13.10;99.90
5675;DHT22;2860;54.284;10.158;2023-07-31T03:06:07;13.10;99.90
5675;DHT22;2860;54.284;10.158;2023-07-31T03:08:33;13.20;99.90
5675;DHT22;2860;54.284;10.158;2023-07-31T03:10:58;13.10;99.90
5675;DHT22;2860;54.284;10.158;2023-07-31T03:13:24;13.10;99.90
5675;DHT22;2860;54.284;10.158;2023-07-31T03:15:50;13.20;99.90
5675;DHT22;2860;54.284;10.158;2023-07-31T03:18:15;13.20;99.90
5675;DHT22;2860;54.284;10.158;2023-07-31T03:20:44;13.20;99.90
5675;DHT22;2860;54.284;10.158;2023-07-31T03:23:09;13.20;99.90
5675;DHT22;2860;54.284;10.158;2023-07-31T03:25:35;13.20;99.90
5675;DHT22;2860;54.284;10.158;2023-07-31T03:28:00;13.20;99.90
5675;DHT22;2860;54.284;10.158;2023-07-31T03:30:26;13.20;99.90
5675;DHT22;2860;54.284;10.158;2023-07-31T03:32:52;13.30;99.90
5675;DHT22;2860;54.284;10.158;2023-07-31T03:35:17;13.30;99.90
5675;DHT22;2860;54.284;10.158;2023-07-31T03:37:43;13.40;99.90
5675;DHT22;2860;54.284;10.158;2023-07-31T03:40:09;13.40;99.90
5675;DHT22;2860;54.284;10.158;2023-07-31T03:42:34;13.50;99.90
5675;DHT22;2860;54.284;10.158;2023-07-31T03:45:00;13.50;99.90
5675;DHT22;2860;54.284;10.158;2023-07-31T03:47:26;13.50;99.90
5675;DHT22;2860;54.284;10.158;2023-07-31T03:49:51;13.60;99.90
5675;DHT22;2860;54.284;10.158;2023-07-31T03:52:17;13.70;99.90
5675;DHT22;2860;54.284;10.158;2023-07-31T03:54:42;13.70;99.90
5675;DHT22;2860;54.284;10.158;2023-07-31T03:57:10;13.80;99.90
5675;DHT22;2860;54.284;10.158;2023-07-31T03:59:36;13.80;99.90
5675;DHT22;2860;54.284;10.158;2023-07-31T04:02:03;13.90;99.90
5675;DHT22;2860;54.284;10.158;2023-07-31T04:04:29;13.90;99.90
5675;DHT22;2860;54.284;10.158;2023-07-31T04:06:54;13.90;99.90
5675;DHT22;2860;54.284;10.158;2023-07-31T04:09:20;14.00;99.90
5675;DHT22;2860;54.284;10.158;2023-07-31T04:11:45;14.00;99.90
5675;DHT22;2860;54.284;10.158;2023-07-31T04:14:11;14.00;99.90
5675;DHT22;2860;54.284;10.158;2023-07-31T04:16:36;14.10;99.90
5675;DHT22;2860;54.284;10.158;2023-07-31T04:19:03;14.10;99.90
5675;DHT22;2860;54.284;10.158;2023-07-31T04:21:28;14.10;99.90
5675;DHT22;2860;54.284;10.158;2023-07-31T04:23:54;14.20;99.90
5675;DHT22;2860;54.284;10.158;2023-07-31T04:26:21;14.20;99.90
5675;DHT22;2860;54.284;10.158;2023-07-31T04:28:47;14.20;99.90
5675;DHT22;2860;54.284;10.158;2023-07-31T04:31:12;14.20;99.90
5675;DHT22;2860;54.284;10.158;2023-07-31T04:33:38;14.20;99.90
5675;DHT22;2860;54.284;10.158;2023-07-31T04:36:04;14.20;99.90
5675;DHT22;2860;54.284;10.158;2023-07-31T04:38:30;14.20;99.90
5675;DHT22;2860;54.284;10.158;2023-07-31T04:40:55;14.20;99.90
5675;DHT22;2860;54.284;10.158;2023-07-31T04:43:21;14.30;99.90
5675;DHT22;2860;54.284;10.158;2023-07-31T04:45:52;14.30;99.90
5675;DHT22;2860;54.284;10.158;2023-07-31T04:48:24;14.30;99.90
5675;DHT22;2860;54.284;10.158;2023-07-31T04:50:49;14.30;99.90
5675;DHT22;2860;54.284;10.158;2023-07-31T04:53:15;14.30;99.90
5675;DHT22;2860;54.284;10.158;2023-07-31T04:55:40;14.30;99.90
5675;DHT22;2860;54.284;10.158;2023-07-31T04:58:06;14.30;99.90
5675;DHT22;2860;54.284;10.158;2023-07-31T05:00:31;14.40;99.90
5675;DHT22;2860;54.284;10.158;2023-07-31T05:02:57;14.40;99.90
5675;DHT22;2860;54.284;10.158;2023-07-31T05:05:22;14.40;99.90
5675;DHT22;2860;54.284;10.158;2023-07-31T05:07:48;14.40;99.90
5675;DHT22;2860;54.284;10.158;2023-07-31T05:10:13;14.40;99.90
5675;DHT22;2860;54.284;10.158;2023-07-31T05:12:39;14.40;99.90
5675;DHT22;2860;54.284;10.158;2023-07-31T05:15:05;14.50;99.90
5675;DHT22;2860;54.284;10.158;2023-07-31T05:17:30;14.50;99.90
5675;DHT22;2860;54.284;10.158;2023-07-31T05:19:56;14.50;99.90
5675;DHT22;2860;54.284;10.158;2023-07-31T05:22:21;14.60;99.90
5675;DHT22;2860;54.284;10.158;2023-07-31T05:24:47;14.60;99.90
5675;DHT22;2860;54.284;10.158;2023-07-31T05:27:12;14.70;99.90
5675;DHT22;2860;54.284;10.158;2023-07-31T05:29:40;14.80;99.90
5675;DHT22;2860;54.284;10.158;2023-07-31T05:32:06;14.80;99.90
5675;DHT22;2860;54.284;10.158;2023-07-31T05:34:32;14.90;99.90
5675;DHT22;2860;54.284;10.158;2023-07-31T05:36:57;15.00;99.90
5675;DHT22;2860;54.284;10.158;2023-07-31T05:39:23;15.00;99.90
5675;DHT22;2860;54.284;10.158;2023-07-31T05:41:48;15.00;99.90
5675;DHT22;2860;54.284;10.158;2023-07-31T05:44:14;15.00;99.90
5675;DHT22;2860;54.284;10.158;2023-07-31T05:46:39;15.00;99.90
5675;DHT22;2860;54.284;10.158;2023-07-31T05:49:05;15.00;99.90
5675;DHT22;2860;54.284;10.158;2023-07-31T05:51:30;15.00;99.90
5675;DHT22;2860;54.284;10.158;2023-07-31T05:53:56;15.00;99.90
5675;DHT22;2860;54.284;10.158;2023-07-31T05:56:21;15.00;99.90
5675;DHT22;2860;54.284;10.158;2023-07-31T05:58:47;15.10;99.90
5675;DHT22;2860;54.284;10.158;2023-07-31T06:01:15;15.10;99.90
5675;DHT22;2860;54.284;10.158;2023-07-31T06:03:40;15.20;99.90
5675;DHT22;2860;54.284;10.158;2023-07-31T06:06:06;15.20;99.90
5675;DHT22;2860;54.284;10.158;2023-07-31T06:08:31;15.30;99.90
5675;DHT22;2860;54.284;10.158;2023-07-31T06:10:57;15.30;99.90
5675;DHT22;2860;54.284;10.158;2023-07-31T06:13:22;15.30;99.90
5675;DHT22;2860;54.284;10.158;2023-07-31T06:15:48;15.30;99.90
5675;DHT22;2860;54.284;10.158;2023-07-31T06:18:13;15.40;99.90
5675;DHT22;2860;54.284;10.158;2023-07-31T06:20:39;15.40;99.90
5675;DHT22;2860;54.284;10.158;2023-07-31T06:23:06;15.40;99.90
5675;DHT22;2860;54.284;10.158;2023-07-31T06:25:31;15.40;99.90
5675;DHT22;2860;54.284;10.158;2023-07-31T06:27:57;15.40;99.90
5675;DHT22;2860;54.284;10.158;2023-07-31T06:30:22;15.40;99.90
5675;DHT22;2860;54.284;10.158;2023-07-31T06:32:48;15.50;99.90
5675;DHT22;2860;54.284;10.158;2023-07-31T06:35:13;15.50;99.90
5675;DHT22;2860;54.284;10.158;2023-07-31T06:37:38;15.50;99.90
5675;DHT22;2860;54.284;10.158;2023-07-31T06:40:06;15.60;99.90
5675;DHT22;2860;54.284;10.158;2023-07-31T06:42:34;15.60;99.90
5675;DHT22;2860;54.284;10.158;2023-07-31T06:45:00;15.70;99.90
5675;DHT22;2860;54.284;10.158;2023-07-31T06:47:26;15.70;99.90
5675;DHT22;2860;54.284;10.158;2023-07-31T06:49:51;15.70;99.90
5675;DHT22;2860;54.284;10.158;2023-07-31T06:52:17;15.70;99.90
5675;DHT22;2860;54.284;10.158;2023-07-31T06:54:42;15.70;99.90
5675;DHT22;2860;54.284;10.158;2023-07-31T06:57:08;15.80;99.90
5675;DHT22;2860;54.284;10.158;2023-07-31T06:59:33;15.80;99.90
5675;DHT22;2860;54.284;10.158;2023-07-31T07:01:59;15.80;99.90
5675;DHT22;2860;54.284;10.158;2023-07-31T07:04:24;15.80;99.90
5675;DHT22;2860;54.284;10.158;2023-07-31T07:06:50;15.90;99.90
5675;DHT22;2860;54.284;10.158;2023-07-31T07:09:15;15.90;99.90
5675;DHT22;2860;54.284;10.158;2023-07-31T07:11:41;16.00;99.90
5675;DHT22;2860;54.284;10.158;2023-07-31T07:14:06;16.10;99.90
5675;DHT22;2860;54.284;10.158;2023-07-31T07:16:32;16.10;99.90
5675;DHT22;2860;54.284;10.158;2023-07-31T07:18:57;16.10;99.90
5675;DHT22;2860;54.284;10.158;2023-07-31T07:21:23;16.10;99.90
5675;DHT22;2860;54.284;10.158;2023-07-31T07:23:48;16.10;99.90
5675;DHT22;2860;54.284;10.158;2023-07-31T07:26:14;16.20;99.90
5675;DHT22;2860;54.284;10.158;2023-07-31T07:28:39;16.30;99.90
5675;DHT22;2860;54.284;10.158;2023-07-31T07:31:05;16.30;99.90
5675;DHT22;2860;54.284;10.158;2023-07-31T07:33:30;16.40;99.90
5675;DHT22;2860;54.284;10.158;2023-07-31T07:36:00;16.50;99.90
5675;DHT22;2860;54.284;10.158;2023-07-31T07:38:26;16.60;99.90
5675;DHT22;2860;54.284;10.158;2023-07-31T07:40:51;16.70;99.90
5675;DHT22;2860;54.284;10.158;2023-07-31T07:43:18;16.70;99.90
5675;DHT22;2860;54.284;10.158;2023-07-31T07:45:59;16.80;99.90
5675;DHT22;2860;54.284;10.158;2023-07-31T07:48:25;16.80;99.90
5675;DHT22;2860;54.284;10.158;2023-07-31T07:50:50;16.90;99.90
5675;DHT22;2860;54.284;10.158;2023-07-31T07:53:16;16.90;99.90
5675;DHT22;2860;54.284;10.158;2023-07-31T07:55:42;16.90;99.90
5675;DHT22;2860;54.284;10.158;2023-07-31T07:58:08;17.00;99.90
5675;DHT22;2860;54.284;10.158;2023-07-31T08:00:33;17.00;99.90
5675;DHT22;2860;54.284;10.158;2023-07-31T08:02:59;17.00;99.90
5675;DHT22;2860;54.284;10.158;2023-07-31T08:05:24;17.00;99.90
5675;DHT22;2860;54.284;10.158;2023-07-31T08:07:50;17.10;99.90
5675;DHT22;2860;54.284;10.158;2023-07-31T08:10:15;17.20;99.90
5675;DHT22;2860;54.284;10.158;2023-07-31T08:12:41;17.30;99.90
5675;DHT22;2860;54.284;10.158;2023-07-31T08:15:07;17.30;99.90
5675;DHT22;2860;54.284;10.158;2023-07-31T08:17:33;17.40;99.90
5675;DHT22;2860;54.284;10.158;2023-07-31T08:19:58;17.40;99.90
5675;DHT22;2860;54.284;10.158;2023-07-31T08:22:24;17.40;99.90
5675;DHT22;2860;54.284;10.158;2023-07-31T08:24:50;17.40;99.90
5675;DHT22;2860;54.284;10.158;2023-07-31T08:27:15;17.40;99.90
5675;DHT22;2860;54.284;10.158;2023-07-31T08:29:41;17.40;99.90
5675;DHT22;2860;54.284;10.158;2023-07-31T08:32:06;17.40;99.90
5675;DHT22;2860;54.284;10.158;2023-07-31T08:34:32;17.50;99.90
5675;DHT22;2860;54.284;10.158;2023-07-31T08:36:57;17.50;99.90
5675;DHT22;2860;54.284;10.158;2023-07-31T08:39:23;17.50;99.90
5675;DHT22;2860;54.284;10.158;2023-07-31T08:41:48;17.50;99.90
5675;DHT22;2860;54.284;10.158;2023-07-31T08:44:15;17.40;99.90
5675;DHT22;2860;54.284;10.158;2023-07-31T08:46:42;17.50;99.90
5675;DHT22;2860;54.284;10.158;2023-07-31T08:49:08;17.60;99.90
5675;DHT22;2860;54.284;10.158;2023-07-31T08:51:35;17.70;99.90
5675;DHT22;2860;54.284;10.158;2023-07-31T08:54:01;17.80;99.90
5675;DHT22;2860;54.284;10.158;2023-07-31T08:56:29;17.90;99.90
5675;DHT22;2860;54.284;10.158;2023-07-31T08:58:57;18.00;99.90
5675;DHT22;2860;54.284;10.158;2023-07-31T09:01:23;18.10;99.90
5675;DHT22;2860;54.284;10.158;2023-07-31T09:03:51;18.10;99.90
5675;DHT22;2860;54.284;10.158;2023-07-31T09:06:18;18.00;99.90
5675;DHT22;2860;54.284;10.158;2023-07-31T09:08:45;18.00;99.90
5675;DHT22;2860;54.284;10.158;2023-07-31T09:11:12;18.00;99.90
5675;DHT22;2860;54.284;10.158;2023-07-31T09:13:39;18.00;99.90
5675;DHT22;2860;54.284;10.158;2023-07-31T09:16:05;17.90;99.90
5675;DHT22;2860;54.284;10.158;2023-07-31T09:18:30;17.80;99.90
5675;DHT22;2860;54.284;10.158;2023-07-31T09:21:05;17.60;99.90
5675;DHT22;2860;54.284;10.158;2023-07-31T09:23:46;17.50;99.90
5675;DHT22;2860;54.284;10.158;2023-07-31T09:26:35;17.40;99.90
5675;DHT22;2860;54.284;10.158;2023-07-31T09:29:03;17.40;99.90
5675;DHT22;2860;54.284;10.158;2023-07-31T09:31:40;17.30;99.90
5675;DHT22;2860;54.284;10.158;2023-07-31T09:34:06;17.30;99.90
5675;DHT22;2860;54.284;10.158;2023-07-31T09:36:32;17.30;99.90
5675;DHT22;2860;54.284;10.158;2023-07-31T09:39:04;17.20;99.90
5675;DHT22;2860;54.284;10.158;2023-07-31T09:41:30;17.20;99.90
5675;DHT22;2860;54.284;10.158;2023-07-31T09:43:56;17.20;99.90
5675;DHT22;2860;54.284;10.158;2023-07-31T09:46:21;17.30;99.90
5675;DHT22;2860;54.284;10.158;2023-07-31T09:48:47;17.30;99.90
5675;DHT22;2860;54.284;10.158;2023-07-31T09:51:13;17.40;99.90
5675;DHT22;2860;54.284;10.158;2023-07-31T09:53:38;17.50;99.90
5675;DHT22;2860;54.284;10.158;2023-07-31T09:56:05;17.70;99.90
5675;DHT22;2860;54.284;10.158;2023-07-31T09:58:34;17.80;99.90
5675;DHT22;2860;54.284;10.158;2023-07-31T10:01:01;17.70;99.90
5675;DHT22;2860;54.284;10.158;2023-07-31T10:03:29;17.70;99.90
5675;DHT22;2860;54.284;10.158;2023-07-31T10:05:56;17.70;99.90
5675;DHT22;2860;54.284;10.158;2023-07-31T10:08:27;17.80;99.90
5675;DHT22;2860;54.284;10.158;2023-07-31T10:10:59;17.80;99.90
5675;DHT22;2860;54.284;10.158;2023-07-31T10:13:25;17.80;99.90
5675;DHT22;2860;54.284;10.158;2023-07-31T10:15:53;17.80;99.90
5675;DHT22;2860;54.284;10.158;2023-07-31T10:18:19;17.90;99.90
5675;DHT22;2860;54.284;10.158;2023-07-31T10:20:46;17.90;99.90
5675;DHT22;2860;54.284;10.158;2023-07-31T10:23:12;18.00;99.90
5675;DHT22;2860;54.284;10.158;2023-07-31T10:25:38;18.00;99.90
5675;DHT22;2860;54.284;10.158;2023-07-31T10:28:04;18.00;99.90
5675;DHT22;2860;54.284;10.158;2023-07-31T10:30:32;18.10;99.90
5675;DHT22;2860;54.284;10.158;2023-07-31T10:32:58;18.10;99.90
5675;DHT22;2860;54.284;10.158;2023-07-31T10:35:24;18.30;99.90
5675;DHT22;2860;54.284;10.158;2023-07-31T10:37:50;18.30;99.90
5675;DHT22;2860;54.284;10.158;2023-07-31T10:40:24;18.50;99.90
5675;DHT22;2860;54.284;10.158;2023-07-31T10:42:54;18.50;99.90
5675;DHT22;2860;54.284;10.158;2023-07-31T10:45:35;18.40;99.90
5675;DHT22;2860;54.284;10.158;2023-07-31T10:48:13;18.40;99.90
5675;DHT22;2860;54.284;10.158;2023-07-31T10:50:47;18.30;99.90
5675;DHT22;2860;54.284;10.158;2023-07-31T10:53:24;18.20;99.90
5675;DHT22;2860;54.284;10.158;2023-07-31T10:55:50;18.30;99.90
5675;DHT22;2860;54.284;10.158;2023-07-31T10:58:20;18.40;99.90
5675;DHT22;2860;54.284;10.158;2023-07-31T11:00:46;18.50;99.90
5675;DHT22;2860;54.284;10.158;2023-07-31T11:03:16;18.60;99.90
5675;DHT22;2860;54.284;10.158;2023-07-31T11:10:49;18.80;99.90
5675;DHT22;2860;54.284;10.158;2023-07-31T11:13:14;18.90;99.90
5675;DHT22;2860;54.284;10.158;2023-07-31T11:15:40;18.90;99.90
5675;DHT22;2860;54.284;10.158;2023-07-31T11:18:06;19.00;99.90
5675;DHT22;2860;54.284;10.158;2023-07-31T11:20:34;19.00;99.90
5675;DHT22;2860;54.284;10.158;2023-07-31T11:23:05;19.10;99.90
5675;DHT22;2860;54.284;10.158;2023-07-31T11:25:32;19.20;99.90
5675;DHT22;2860;54.284;10.158;2023-07-31T11:28:08;19.20;99.90
5675;DHT22;2860;54.284;10.158;2023-07-31T11:30:34;19.20;99.90
5675;DHT22;2860;54.284;10.158;2023-07-31T11:33:01;19.20;99.90
5675;DHT22;2860;54.284;10.158;2023-07-31T11:35:31;19.20;99.90
5675;DHT22;2860;54.284;10.158;2023-07-31T11:37:57;19.30;99.90
5675;DHT22;2860;54.284;10.158;2023-07-31T11:40:23;19.30;99.90
5675;DHT22;2860;54.284;10.158;2023-07-31T11:42:54;19.20;99.90
5675;DHT22;2860;54.284;10.158;2023-07-31T11:45:20;19.10;99.90
5675;DHT22;2860;54.284;10.158;2023-07-31T11:47:45;19.10;99.90
5675;DHT22;2860;54.284;10.158;2023-07-31T11:50:11;19.10;99.90
5675;DHT22;2860;54.284;10.158;2023-07-31T11:52:42;19.20;99.90
5675;DHT22;2860;54.284;10.158;2023-07-31T11:55:08;19.20;99.90
5675;DHT22;2860;54.284;10.158;2023-07-31T11:57:39;19.20;99.90
5675;DHT22;2860;54.284;10.158;2023-07-31T12:00:07;19.10;99.90
5675;DHT22;2860;54.284;10.158;2023-07-31T12:02:34;19.00;99.90
5675;DHT22;2860;54.284;10.158;2023-07-31T12:05:00;18.90;99.90
5675;DHT22;2860;54.284;10.158;2023-07-31T12:07:25;18.70;99.90
5675;DHT22;2860;54.284;10.158;2023-07-31T12:09:54;18.70;99.90
5675;DHT22;2860;54.284;10.158;2023-07-31T12:12:23;18.50;99.90
5675;DHT22;2860;54.284;10.158;2023-07-31T12:14:51;18.40;99.90
5675;DHT22;2860;54.284;10.158;2023-07-31T12:17:19;18.30;99.90
5675;DHT22;2860;54.284;10.158;2023-07-31T12:19:45;18.10;99.90
5675;DHT22;2860;54.284;10.158;2023-07-31T12:22:15;18.10;99.90
5675;DHT22;2860;54.284;10.158;2023-07-31T12:24:42;18.10;99.90
5675;DHT22;2860;54.284;10.158;2023-07-31T12:27:14;18.00;99.90
5675;DHT22;2860;54.284;10.158;2023-07-31T12:29:41;18.00;99.90
5675;DHT22;2860;54.284;10.158;2023-07-31T12:32:24;17.90;99.90
5675;DHT22;2860;54.284;10.158;2023-07-31T12:34:50;17.80;99.90
5675;DHT22;2860;54.284;10.158;2023-07-31T12:37:16;17.70;99.90
5675;DHT22;2860;54.284;10.158;2023-07-31T12:39:42;17.70;99.90
5675;DHT22;2860;54.284;10.158;2023-07-31T12:42:07;17.60;99.90
5675;DHT22;2860;54.284;10.158;2023-07-31T12:44:33;17.70;99.90
5675;DHT22;2860;54.284;10.158;2023-07-31T12:46:58;17.70;99.90
5675;DHT22;2860;54.284;10.158;2023-07-31T12:49:24;17.70;99.90
5675;DHT22;2860;54.284;10.158;2023-07-31T12:51:50;17.80;99.90
5675;DHT22;2860;54.284;10.158;2023-07-31T12:54:15;17.80;99.90
5675;DHT22;2860;54.284;10.158;2023-07-31T12:56:41;17.80;99.90
5675;DHT22;2860;54.284;10.158;2023-07-31T12:59:06;17.80;99.90
5675;DHT22;2860;54.284;10.158;2023-07-31T13:01:32;17.90;99.90
5675;DHT22;2860;54.284;10.158;2023-07-31T13:03:57;17.90;99.90
5675;DHT22;2860;54.284;10.158;2023-07-31T13:06:24;18.00;99.90
5675;DHT22;2860;54.284;10.158;2023-07-31T13:08:50;18.10;99.90
5675;DHT22;2860;54.284;10.158;2023-07-31T13:11:15;18.20;99.90
5675;DHT22;2860;54.284;10.158;2023-07-31T13:13:41;18.40;99.90
5675;DHT22;2860;54.284;10.158;2023-07-31T13:16:06;18.40;99.90
5675;DHT22;2860;54.284;10.158;2023-07-31T13:18:32;18.60;99.90
5675;DHT22;2860;54.284;10.158;2023-07-31T13:20:57;18.50;99.90
5675;DHT22;2860;54.284;10.158;2023-07-31T13:23:23;18.50;99.90
5675;DHT22;2860;54.284;10.158;2023-07-31T13:25:48;18.40;99.90
5675;DHT22;2860;54.284;10.158;2023-07-31T13:28:14;18.40;99.90
5675;DHT22;2860;54.284;10.158;2023-07-31T13:30:39;18.50;99.90
5675;DHT22;2860;54.284;10.158;2023-07-31T13:33:05;18.50;99.90
5675;DHT22;2860;54.284;10.158;2023-07-31T13:35:30;18.70;99.90
5675;DHT22;2860;54.284;10.158;2023-07-31T13:37:57;18.80;99.90
5675;DHT22;2860;54.284;10.158;2023-07-31T13:40:22;19.00;99.90
5675;DHT22;2860;54.284;10.158;2023-07-31T13:42:48;19.20;99.90
5675;DHT22;2860;54.284;10.158;2023-07-31T13:45:14;19.40;99.90
5675;DHT22;2860;54.284;10.158;2023-07-31T13:47:39;19.60;99.90
5675;DHT22;2860;54.284;10.158;2023-07-31T13:50:05;19.90;99.90
5675;DHT22;2860;54.284;10.158;2023-07-31T13:52:31;20.10;99.90
5675;DHT22;2860;54.284;10.158;2023-07-31T13:54:56;20.40;99.90
5675;DHT22;2860;54.284;10.158;2023-07-31T13:57:22;20.50;99.90
5675;DHT22;2860;54.284;10.158;2023-07-31T13:59:48;20.50;99.90
5675;DHT22;2860;54.284;10.158;2023-07-31T14:02:14;20.50;99.90
5675;DHT22;2860;54.284;10.158;2023-07-31T14:04:40;20.40;99.90
5675;DHT22;2860;54.284;10.158;2023-07-31T14:07:06;20.30;99.90
5675;DHT22;2860;54.284;10.158;2023-07-31T14:09:34;20.40;99.90
5675;DHT22;2860;54.284;10.158;2023-07-31T14:11:59;20.40;99.90
5675;DHT22;2860;54.284;10.158;2023-07-31T14:14:25;20.50;99.90
5675;DHT22;2860;54.284;10.158;2023-07-31T14:16:50;20.70;99.90
5675;DHT22;2860;54.284;10.158;2023-07-31T14:19:16;20.80;99.90
5675;DHT22;2860;54.284;10.158;2023-07-31T14:21:41;20.90;99.90
5675;DHT22;2860;54.284;10.158;2023-07-31T14:24:07;21.00;99.90
5675;DHT22;2860;54.284;10.158;2023-07-31T14:26:33;21.10;99.90
5675;DHT22;2860;54.284;10.158;2023-07-31T14:28:58;21.10;99.90
5675;DHT22;2860;54.284;10.158;2023-07-31T14:31:23;21.10;99.90
5675;DHT22;2860;54.284;10.158;2023-07-31T14:33:49;21.10;99.90
5675;DHT22;2860;54.284;10.158;2023-07-31T14:36:14;21.00;99.90
5675;DHT22;2860;54.284;10.158;2023-07-31T14:38:40;20.90;99.90
5675;DHT22;2860;54.284;10.158;2023-07-31T14:41:05;20.70;99.90
5675;DHT22;2860;54.284;10.158;2023-07-31T14:43:31;20.60;99.90
5675;DHT22;2860;54.284;10.158;2023-07-31T14:45:57;20.50;99.90
5675;DHT22;2860;54.284;10.158;2023-07-31T14:48:25;20.50;99.90
5675;DHT22;2860;54.284;10.158;2023-07-31T14:50:50;20.30;99.90
5675;DHT22;2860;54.284;10.158;2023-07-31T14:53:16;20.30;99.90
5675;DHT22;2860;54.284;10.158;2023-07-31T14:55:41;20.20;99.90
5675;DHT22;2860;54.284;10.158;2023-07-31T14:58:07;20.10;99.90
5675;DHT22;2860;54.284;10.158;2023-07-31T15:00:32;20.10;99.90
5675;DHT22;2860;54.284;10.158;2023-07-31T15:02:58;20.10;99.90
5675;DHT22;2860;54.284;10.158;2023-07-31T15:05:24;20.00;99.90
5675;DHT22;2860;54.284;10.158;2023-07-31T15:07:49;20.00;99.90
5675;DHT22;2860;54.284;10.158;2023-07-31T15:10:17;20.10;99.90
5675;DHT22;2860;54.284;10.158;2023-07-31T15:12:42;20.20;99.90
5675;DHT22;2860;54.284;10.158;2023-07-31T15:15:08;20.40;99.90
5675;DHT22;2860;54.284;10.158;2023-07-31T15:17:34;20.50;99.90
5675;DHT22;2860;54.284;10.158;2023-07-31T15:19:59;20.60;99.90
5675;DHT22;2860;54.284;10.158;2023-07-31T15:22:26;20.70;99.90
5675;DHT22;2860;54.284;10.158;2023-07-31T15:24:51;20.80;99.90
5675;DHT22;2860;54.284;10.158;2023-07-31T15:27:17;20.70;99.90
5675;DHT22;2860;54.284;10.158;2023-07-31T15:29:42;20.50;99.90
5675;DHT22;2860;54.284;10.158;2023-07-31T15:32:08;20.40;99.90
5675;DHT22;2860;54.284;10.158;2023-07-31T15:34:34;20.30;99.90
5675;DHT22;2860;54.284;10.158;2023-07-31T15:36:59;20.10;99.90
5675;DHT22;2860;54.284;10.158;2023-07-31T15:39:25;19.90;99.90
5675;DHT22;2860;54.284;10.158;2023-07-31T15:41:50;19.80;99.90
5675;DHT22;2860;54.284;10.158;2023-07-31T15:44:16;19.60;99.90
5675;DHT22;2860;54.284;10.158;2023-07-31T15:46:41;19.50;99.90